Time;durP1;ratioP1;P1;durP2;ratioP2;P2;SDS_P1;SDS_P2;PMS_P1;PMS_P2;Temp;Humidity;BMP_temperature;BMP_pressure;BME280_temperature;BME280_humidity;BME280_pressure;Samples;Min_cycle;Max_cycle;Signal;HPM_P1;HPM_P2
2021/11/22 00:02:10;;;;;;;27.60;11.85;;;;;;;4.57;92.93;100126.62;1735984;81;20969;-44
2021/11/22 00:04:37;;;;;;;18.73;10.18;;;;;;;4.58;92.87;100125.31;1736316;82;20929;-43
2021/11/22 00:07:04;;;;;;;21.17;10.20;;;;;;;4.56;92.67;100123.19;1735964;82;21874;-44
2021/11/22 00:09:33;;;;;;;19.07;10.10;;;;;;;4.51;92.62;100133.86;1715183;82;20886;-44
2021/11/22 00:12:01;;;;;;;20.70;10.48;;;;;;;4.44;92.63;100134.72;1735974;82;21593;-44
2021/11/22 00:14:29;;;;;;;14.35;10.40;;;;;;;4.35;92.64;100129.14;1735896;82;20878;-44
2021/11/22 00:16:58;;;;;;;23.05;11.48;;;;;;;4.27;93.00;100125.28;1735992;82;20980;-44
2021/11/22 00:19:27;;;;;;;13.75;9.73;;;;;;;4.24;93.14;100136.80;1736018;81;21196;-44
2021/11/22 00:21:53;;;;;;;23.35;11.40;;;;;;;4.20;93.29;100136.38;1735941;82;20889;-44
2021/11/22 00:24:21;;;;;;;18.12;11.12;;;;;;;4.15;93.32;100140.60;1735941;82;20976;-44
2021/11/22 00:26:48;;;;;;;17.98;11.33;;;;;;;4.11;93.46;100134.63;1735781;82;20905;-45
2021/11/22 00:29:15;;;;;;;18.27;10.78;;;;;;;4.08;93.64;100139.75;1745456;81;21485;-44
2021/11/22 00:31:48;;;;;;;16.60;10.00;;;;;;;4.06;93.70;100143.15;1749086;82;21007;-45
2021/11/22 00:34:16;;;;;;;20.32;11.20;;;;;;;4.02;93.85;100141.86;1748806;82;20913;-44
2021/11/22 00:36:51;;;;;;;29.20;12.90;;;;;;;4.00;94.02;100141.00;1749329;81;20908;-48
2021/11/22 00:39:17;;;;;;;21.42;11.00;;;;;;;3.91;94.19;100139.66;1750021;82;21470;-45
2021/11/22 00:41:44;;;;;;;35.88;11.85;;;;;;;3.91;94.19;100139.66;1749927;81;20999;-44
2021/11/22 00:44:11;;;;;;;63.80;13.48;;;;;;;3.90;94.27;100146.08;1749872;82;21148;-44
2021/11/22 00:46:38;;;;;;;33.13;12.07;;;;;;;3.86;94.32;100142.64;1749897;82;20983;-44
2021/11/22 00:49:06;;;;;;;22.95;12.58;;;;;;;3.81;94.52;100153.29;1750313;82;20932;-43
2021/11/22 00:51:33;;;;;;;25.43;13.08;;;;;;;3.78;94.79;100153.28;1722271;82;21500;-43
2021/11/22 00:54:00;;;;;;;23.12;12.20;;;;;;;3.80;95.07;100152.86;1750016;82;21007;-43
2021/11/22 00:56:29;;;;;;;25.02;11.45;;;;;;;3.84;95.24;100154.17;1749860;81;21190;-43
2021/11/22 00:58:56;;;;;;;19.77;11.88;;;;;;;3.89;95.23;100140.09;1749926;82;21023;-43
2021/11/22 01:01:23;;;;;;;20.80;11.85;;;;;;;3.86;95.01;100142.23;1749941;82;20984;-43
2021/11/22 01:03:50;;;;;;;23.20;11.03;;;;;;;3.76;95.11;100139.63;1749811;81;20893;-43
2021/11/22 01:06:17;;;;;;;83.90;13.83;;;;;;;3.76;95.11;100139.63;1749898;82;20889;-43
2021/11/22 01:08:44;;;;;;;46.42;12.70;;;;;;;3.65;95.34;100144.24;1750049;82;21903;-43
2021/11/22 01:11:11;;;;;;;83.97;15.13;;;;;;;3.65;95.34;100144.24;1749817;82;20955;-44
2021/11/22 01:13:38;;;;;;;94.52;15.83;;;;;;;3.61;95.27;100137.84;1749998;82;21462;-44
2021/11/22 01:16:06;;;;;;;175.12;18.77;;;;;;;3.55;95.20;100142.50;1749939;82;20948;-44
2021/11/22 01:18:33;;;;;;;214.30;21.23;;;;;;;3.49;95.25;100143.75;1749995;82;20996;-45
2021/11/22 01:20:59;;;;;;;192.10;17.87;;;;;;;3.45;95.45;100140.30;1722141;82;21039;-45
2021/11/22 01:23:26;;;;;;;238.55;23.18;;;;;;;3.43;95.74;100140.31;1749896;82;20972;-44
2021/11/22 01:25:53;;;;;;;602.73;50.38;;;;;;;3.42;95.96;100145.41;1750007;82;21039;-44
2021/11/22 01:28:20;;;;;;;1999.90;170.40;;;;;;;3.40;96.00;100135.59;1749820;81;20873;-44
2021/11/22 01:30:47;;;;;;;1593.63;122.17;;;;;;;3.35;96.12;100141.95;1749893;81;20924;-44
2021/11/22 01:33:14;;;;;;;1474.88;108.52;;;;;;;3.35;96.12;100141.95;1749948;82;21095;-44
2021/11/22 01:35:43;;;;;;;1238.15;92.12;;;;;;;3.32;96.06;100150.05;1750110;82;21396;-44
2021/11/22 01:38:11;;;;;;;833.85;63.28;;;;;;;3.25;96.14;100151.70;1722111;82;21032;-44
2021/11/22 01:40:38;;;;;;;722.98;57.15;;;;;;;3.21;96.28;100162.77;1749748;81;21510;-45
2021/11/22 01:43:06;;;;;;;1422.00;104.15;;;;;;;3.16;96.55;100155.05;1749890;82;20948;-44
2021/11/22 01:45:33;;;;;;;1216.08;92.12;;;;;;;3.18;96.77;100160.19;1749909;82;21146;-44
2021/11/22 01:48:01;;;;;;;1400.43;108.67;;;;;;;3.18;96.97;100161.03;1750085;82;20968;-44
2021/11/22 01:50:28;;;;;;;1085.83;84.15;;;;;;;3.18;97.13;100162.75;1750014;82;20972;-44
2021/11/22 01:52:55;;;;;;;893.52;66.28;;;;;;;3.12;97.04;100154.59;1750034;82;20971;-44
2021/11/22 01:55:24;;;;;;;1261.55;96.12;;;;;;;3.16;97.40;100169.98;1749908;82;20889;-44
2021/11/22 01:57:52;;;;;;;1367.10;107.43;;;;;;;3.14;97.31;100165.26;1750424;82;21106;-44
2021/11/22 02:00:30;;;;;;;1490.68;107.03;;;;;;;3.10;97.12;100171.20;1749918;82;21383;-45
2021/11/22 02:02:57;;;;;;;1983.13;149.32;;;;;;;3.06;97.30;100172.02;1750286;82;21481;-44
2021/11/22 02:05:24;;;;;;;1762.48;142.00;;;;;;;3.05;97.58;100165.20;1750068;82;20928;-44
2021/11/22 02:07:51;;;;;;;1999.90;159.85;;;;;;;3.03;97.76;100164.33;1749930;82;20932;-43
2021/11/22 02:10:18;;;;;;;1999.90;186.95;;;;;;;3.02;97.74;100166.45;1750044;82;21138;-44
2021/11/22 02:12:45;;;;;;;1999.90;183.05;;;;;;;3.00;97.73;100165.59;1750003;82;20933;-44
2021/11/22 02:15:12;;;;;;;1657.30;130.27;;;;;;;2.97;97.76;100168.12;1749945;82;20968;-45
2021/11/22 02:17:41;;;;;;;1999.90;165.60;;;;;;;2.92;97.95;100162.96;1749892;82;20932;-44
2021/11/22 02:20:13;;;;;;;1999.90;198.50;;;;;;;2.91;98.11;100167.64;1716187;82;21371;-43
2021/11/22 02:22:40;;;;;;;1681.53;135.18;;;;;;;2.87;97.95;100169.75;1749782;82;21928;-45
2021/11/22 02:25:09;;;;;;;1999.90;226.75;;;;;;;2.82;98.07;100170.13;1749956;81;21434;-44
2021/11/22 02:27:38;;;;;;;1999.90;173.82;;;;;;;2.78;98.20;100173.08;1750223;82;20897;-44
2021/11/22 02:30:07;;;;;;;1729.78;130.57;;;;;;;2.70;98.04;100177.27;1739249;81;21573;-44
2021/11/22 02:32:40;;;;;;;869.67;63.30;;;;;;;2.63;98.01;100180.17;1714919;82;20993;-44
2021/11/22 02:35:10;;;;;;;879.12;67.45;;;;;;;2.57;98.27;100178.41;1736039;82;21780;-44
2021/11/22 02:37:37;;;;;;;270.57;26.87;;;;;;;2.53;98.46;100174.55;1735952;82;20941;-43
2021/11/22 02:40:05;;;;;;;124.80;19.55;;;;;;;2.50;98.76;100179.61;1736251;82;21636;-44
2021/11/22 02:42:34;;;;;;;122.42;18.48;;;;;;;2.49;99.24;100177.48;1736031;82;21398;-43
2021/11/22 02:45:02;;;;;;;54.15;16.40;;;;;;;2.54;99.71;100182.22;1735940;82;20909;-44
2021/11/22 02:47:29;;;;;;;49.90;14.55;;;;;;;2.57;99.84;100188.63;1735986;82;21195;-45
2021/11/22 02:49:56;;;;;;;88.87;17.37;;;;;;;2.59;99.84;100186.95;1736000;82;20937;-43
2021/11/22 02:52:23;;;;;;;66.00;15.43;;;;;;;2.60;99.89;100187.82;1736005;81;21648;-44
2021/11/22 02:54:51;;;;;;;63.45;16.87;;;;;;;2.58;99.88;100190.34;1735920;82;20945;-43
2021/11/22 02:57:18;;;;;;;139.28;20.27;;;;;;;2.58;100.00;100194.18;1714780;82;21494;-45
2021/11/22 02:59:45;;;;;;;69.03;15.30;;;;;;;2.63;100.00;100198.48;1736042;82;21107;-44
2021/11/22 03:02:13;;;;;;;95.92;18.23;;;;;;;2.63;100.00;100198.48;1714978;82;21467;-44
2021/11/22 03:04:43;;;;;;;51.23;13.58;;;;;;;2.70;100.00;100196.00;1736073;82;21511;-44
2021/11/22 03:07:10;;;;;;;39.75;12.70;;;;;;;2.73;100.00;100192.63;1735899;82;20955;-44
2021/11/22 03:09:37;;;;;;;37.58;15.50;;;;;;;2.75;100.00;100192.22;1735812;81;20977;-43
2021/11/22 03:12:07;;;;;;;32.20;14.33;;;;;;;2.75;100.00;100203.73;1736025;81;21912;-43
2021/11/22 03:14:34;;;;;;;30.12;13.93;;;;;;;2.76;100.00;100199.45;1736143;82;20968;-43
2021/11/22 03:17:01;;;;;;;24.30;12.55;;;;;;;2.77;100.00;100207.16;1735966;82;20921;-44
2021/11/22 03:19:28;;;;;;;27.07;12.75;;;;;;;2.79;100.00;100204.62;1735916;82;20894;-44
2021/11/22 03:21:55;;;;;;;19.95;12.25;;;;;;;2.80;100.00;100205.90;1736094;82;21021;-48
2021/11/22 03:24:22;;;;;;;28.92;13.72;;;;;;;2.83;100.00;100207.64;1736041;82;21140;-45
2021/11/22 03:26:48;;;;;;;28.30;13.00;;;;;;;2.83;100.00;100216.16;1735937;81;21482;-45
2021/11/22 03:29:16;;;;;;;21.42;12.65;;;;;;;2.84;100.00;100214.47;1739880;81;21426;-44
2021/11/22 03:31:44;;;;;;;29.57;14.25;;;;;;;2.84;100.00;100211.91;1749828;82;21303;-44
2021/11/22 03:34:12;;;;;;;29.70;14.20;;;;;;;2.87;99.98;100223.44;1749961;81;21521;-43
2021/11/22 03:36:40;;;;;;;29.52;14.63;;;;;;;2.85;99.90;100220.02;1749839;82;21127;-44
2021/11/22 03:39:19;;;;;;;31.02;13.98;;;;;;;2.82;99.84;100216.16;1722051;82;20904;-44
2021/11/22 03:41:44;;;;;;;34.38;13.65;;;;;;;2.81;99.83;100221.67;1750009;82;20865;-45
2021/11/22 03:44:12;;;;;;;28.35;12.98;;;;;;;2.78;99.72;100219.50;1749944;82;22667;-44
2021/11/22 03:46:42;;;;;;;51.30;13.95;;;;;;;2.76;99.69;100221.19;1750138;82;21510;-44
2021/11/22 03:49:08;;;;;;;35.08;13.35;;;;;;;2.75;99.73;100222.90;1749815;82;21100;-44
2021/11/22 03:51:36;;;;;;;39.25;14.87;;;;;;;2.73;99.95;100222.87;1722300;82;20967;-42
2021/11/22 03:54:03;;;;;;;47.62;15.15;;;;;;;2.74;99.91;100225.02;1749876;80;20952;-42
2021/11/22 03:56:30;;;;;;;56.53;14.43;;;;;;;2.73;99.81;100226.70;1749761;82;20944;-44
2021/11/22 03:58:57;;;;;;;48.98;13.08;;;;;;;2.73;99.85;100224.59;1749946;82;20960;-44
2021/11/22 04:01:24;;;;;;;50.00;14.38;;;;;;;2.80;99.82;100233.18;1749901;82;21212;-45
2021/11/22 04:03:51;;;;;;;41.18;13.22;;;;;;;2.80;99.82;100233.18;1749811;81;21429;-44
2021/11/22 04:06:19;;;;;;;38.30;13.05;;;;;;;2.81;99.62;100235.73;1749924;82;21023;-43
2021/11/22 04:08:48;;;;;;;33.05;13.62;;;;;;;2.78;99.33;100240.82;1749997;81;20940;-44
2021/11/22 04:11:15;;;;;;;51.35;14.03;;;;;;;2.75;99.34;100242.48;1750067;82;20964;-45
2021/11/22 04:13:42;;;;;;;25.90;14.00;;;;;;;2.70;99.30;100245.84;1750081;82;21193;-44
2021/11/22 04:16:09;;;;;;;54.50;15.28;;;;;;;2.64;99.23;100245.79;1749930;82;21003;-44
2021/11/22 04:18:37;;;;;;;40.08;16.48;;;;;;;2.59;99.20;100247.45;1749974;82;21465;-44
2021/11/22 04:21:04;;;;;;;46.55;15.25;;;;;;;2.53;99.23;100247.39;1749933;81;21493;-45
2021/11/22 04:23:32;;;;;;;27.17;13.40;;;;;;;2.48;99.37;100247.73;1749941;82;21059;-45
2021/11/22 04:25:59;;;;;;;60.50;15.75;;;;;;;2.44;99.54;100252.80;1749810;80;21148;-44
2021/11/22 04:28:26;;;;;;;71.80;15.90;;;;;;;2.41;99.68;100258.32;1749753;82;20933;-45
2021/11/22 04:30:53;;;;;;;108.40;17.50;;;;;;;2.37;99.76;100260.38;1738270;81;20897;-45
2021/11/22 04:33:19;;;;;;;130.52;18.05;;;;;;;2.33;99.72;100267.16;1735917;81;20972;-44
2021/11/22 04:35:46;;;;;;;46.30;13.65;;;;;;;2.28;99.72;100268.38;1736001;82;21012;-43
2021/11/22 04:38:13;;;;;;;48.25;15.93;;;;;;;2.25;99.96;100274.73;1735933;82;21101;-43
2021/11/22 04:40:40;;;;;;;43.02;14.98;;;;;;;2.23;100.00;100281.52;1735876;82;20960;-44
2021/11/22 04:43:07;;;;;;;35.92;14.55;;;;;;;2.22;100.00;100284.91;1714953;82;20921;-43
2021/11/22 04:45:34;;;;;;;24.25;13.88;;;;;;;2.18;100.00;100283.16;1735843;82;21012;-44
2021/11/22 04:48:04;;;;;;;22.32;13.20;;;;;;;2.17;100.00;100287.83;1735873;81;21533;-43
2021/11/22 04:50:31;;;;;;;23.77;14.38;;;;;;;2.17;100.00;100290.78;1735889;82;21143;-44
2021/11/22 04:53:01;;;;;;;29.77;14.38;;;;;;;2.17;100.00;100292.94;1735844;82;20960;-43
2021/11/22 04:55:28;;;;;;;22.25;14.20;;;;;;;2.14;100.00;100288.63;1735749;82;20988;-44
2021/11/22 04:57:55;;;;;;;35.92;14.65;;;;;;;2.13;100.00;100285.64;1735927;82;21015;-44
2021/11/22 05:00:23;;;;;;;24.65;14.95;;;;;;;2.15;100.00;100288.23;1736131;82;21541;-45
2021/11/22 05:02:52;;;;;;;25.90;14.75;;;;;;;2.16;100.00;100291.22;1735857;82;21486;-43
2021/11/22 05:05:19;;;;;;;27.25;14.63;;;;;;;2.13;100.00;100292.02;1735972;82;21439;-43
2021/11/22 05:07:46;;;;;;;21.37;14.35;;;;;;;2.12;100.00;100294.14;1735907;82;20902;-44
2021/11/22 05:10:13;;;;;;;30.23;14.85;;;;;;;2.10;100.00;100298.37;1735867;82;20980;-44
2021/11/22 05:12:41;;;;;;;23.95;15.38;;;;;;;2.09;100.00;100297.05;1736107;82;21545;-43
2021/11/22 05:15:08;;;;;;;21.00;13.83;;;;;;;2.07;100.00;100297.45;1735930;81;21041;-44
2021/11/22 05:17:35;;;;;;;24.55;14.50;;;;;;;2.08;100.00;100306.83;1739548;81;20981;-44
2021/11/22 05:20:04;;;;;;;22.70;14.18;;;;;;;2.11;100.00;100298.80;1735941;82;20929;-44
2021/11/22 05:22:32;;;;;;;26.00;15.85;;;;;;;2.14;100.00;100301.80;1736055;82;20901;-44
2021/11/22 05:25:01;;;;;;;22.27;14.55;;;;;;;2.15;100.00;100295.89;1736017;82;21550;-44
2021/11/22 05:27:28;;;;;;;23.47;14.63;;;;;;;2.17;100.00;100300.59;1735970;82;21870;-45
2021/11/22 05:29:55;;;;;;;21.52;13.48;;;;;;;2.17;100.00;100303.16;1740049;82;21561;-44
2021/11/22 05:32:22;;;;;;;23.32;14.50;;;;;;;2.17;100.00;100309.53;1749926;82;20911;-44
2021/11/22 05:34:52;;;;;;;19.25;13.53;;;;;;;2.19;100.00;100307.86;1749922;82;21450;-43
2021/11/22 05:37:20;;;;;;;21.57;13.05;;;;;;;2.21;100.00;100316.80;1749657;82;21434;-46
2021/11/22 05:39:49;;;;;;;24.37;14.38;;;;;;;2.23;100.00;100321.11;1749885;81;21093;-44
2021/11/22 05:42:16;;;;;;;26.90;13.80;;;;;;;2.25;100.00;100333.48;1722166;82;21521;-46
2021/11/22 05:46:12;;;;;;;22.95;14.35;;;;;;;2.33;100.00;100328.48;1816165;79;22709;-45
2021/11/22 05:48:38;;;;;;;27.58;13.58;;;;;;;2.29;100.00;100331.84;1789360;80;20920;-44
2021/11/22 05:51:07;;;;;;;21.97;13.13;;;;;;;2.27;100.00;100336.91;1729993;80;21143;-44
2021/11/22 05:53:36;;;;;;;21.80;14.15;;;;;;;2.25;100.00;100333.48;1779331;80;21026;-48
2021/11/22 05:56:06;;;;;;;21.07;13.45;;;;;;;2.33;100.00;100337.42;1778871;80;20960;-43
2021/11/22 05:58:33;;;;;;;25.15;14.13;;;;;;;2.37;100.00;100344.69;1779091;80;20904;-44
2021/11/22 06:01:02;;;;;;;21.02;14.23;;;;;;;2.39;100.00;100346.44;1750907;80;21030;-43
2021/11/22 06:03:28;;;;;;;20.45;14.13;;;;;;;2.39;100.00;100344.28;1779166;80;21152;-44
2021/11/22 06:05:56;;;;;;;22.20;13.88;;;;;;;2.40;100.00;100347.28;1750587;80;20916;-44
2021/11/22 06:08:22;;;;;;;26.05;14.63;;;;;;;2.40;100.00;100351.98;1779027;80;20916;-44
2021/11/22 06:10:49;;;;;;;27.42;14.40;;;;;;;2.39;100.00;100357.94;1779093;80;20857;-44
2021/11/22 06:13:17;;;;;;;25.10;15.15;;;;;;;2.42;100.00;100357.97;1779320;80;21537;-45
2021/11/22 06:15:46;;;;;;;21.02;13.58;;;;;;;2.42;100.00;100357.97;1778951;80;20873;-45
2021/11/22 06:18:15;;;;;;;22.62;13.80;;;;;;;2.53;100.00;100367.06;1778929;80;20936;-43
2021/11/22 06:20:42;;;;;;;21.45;14.30;;;;;;;2.63;100.00;100356.55;1779009;80;20908;-44
2021/11/22 06:23:10;;;;;;;21.00;13.80;;;;;;;2.73;100.00;100364.75;1779043;80;20972;-43
2021/11/22 06:25:36;;;;;;;21.95;14.03;;;;;;;2.83;100.00;100364.45;1779144;80;20944;-43
2021/11/22 06:28:04;;;;;;;29.80;14.60;;;;;;;2.97;100.00;100369.72;1778950;80;21089;-43
2021/11/22 06:30:32;;;;;;;22.40;14.13;;;;;;;3.14;100.00;100367.34;1779259;80;20932;-44
2021/11/22 06:32:58;;;;;;;24.60;13.00;;;;;;;3.30;100.00;100368.39;1779062;80;20865;-44
2021/11/22 06:35:25;;;;;;;22.10;13.68;;;;;;;3.48;100.00;100368.11;1778930;80;21019;-44
2021/11/22 06:37:52;;;;;;;23.10;13.75;;;;;;;3.71;99.24;100370.89;1779113;80;20866;-44
2021/11/22 06:40:19;;;;;;;18.50;13.45;;;;;;;3.71;99.24;100370.89;1750961;80;20939;-43
2021/11/22 06:42:46;;;;;;;21.35;13.32;;;;;;;3.93;97.83;100368.51;1778840;80;20924;-44
2021/11/22 06:45:13;;;;;;;19.45;13.68;;;;;;;3.93;97.83;100368.51;1775171;80;21017;-44
2021/11/22 06:47:42;;;;;;;24.90;14.85;;;;;;;4.06;97.58;100378.83;1771035;80;20952;-44
2021/11/22 06:50:09;;;;;;;22.17;14.18;;;;;;;4.14;96.92;100387.41;1771137;80;21426;-44
2021/11/22 06:52:36;;;;;;;26.93;13.85;;;;;;;4.23;96.05;100399.03;1771173;80;21070;-44
2021/11/22 06:55:05;;;;;;;33.92;13.48;;;;;;;4.31;95.95;100405.05;1742894;81;20849;-44
2021/11/22 06:57:32;;;;;;;30.10;13.58;;;;;;;4.39;95.25;100401.27;1770933;81;21431;-44
2021/11/22 06:59:59;;;;;;;19.60;11.90;;;;;;;4.49;94.76;100400.89;1770491;81;21028;-45
2021/11/22 07:02:26;;;;;;;25.48;12.85;;;;;;;4.57;93.83;100399.22;1770750;80;21414;-45
2021/11/22 07:04:53;;;;;;;36.42;13.93;;;;;;;4.64;93.16;100398.84;1770623;81;21138;-44
2021/11/22 07:07:20;;;;;;;22.85;13.75;;;;;;;4.70;92.76;100396.73;1770695;80;20992;-44
2021/11/22 07:09:48;;;;;;;20.27;12.55;;;;;;;4.75;92.24;100397.61;1770374;81;21450;-44
2021/11/22 07:12:15;;;;;;;24.95;13.20;;;;;;;4.81;92.09;100413.02;1770517;80;20945;-44
2021/11/22 07:14:43;;;;;;;20.68;13.38;;;;;;;4.87;91.76;100408.35;1770551;81;20897;-44
2021/11/22 07:17:11;;;;;;;19.20;13.65;;;;;;;4.92;91.52;100409.63;1742329;81;21474;-44
2021/11/22 07:19:38;;;;;;;24.40;13.48;;;;;;;4.98;90.79;100411.80;1770459;81;20897;-44
2021/11/22 07:22:09;;;;;;;24.65;13.85;;;;;;;5.07;90.74;100416.13;1770725;81;20984;-44
2021/11/22 07:24:39;;;;;;;25.32;13.72;;;;;;;5.16;90.19;100417.86;1770364;80;20901;-44
2021/11/22 07:27:07;;;;;;;23.22;15.38;;;;;;;5.19;89.68;100421.72;1742541;81;20940;-44
2021/11/22 07:29:34;;;;;;;23.95;15.63;;;;;;;5.23;89.32;100422.16;1742644;81;21004;-44
2021/11/22 07:32:01;;;;;;;16.80;12.65;;;;;;;5.26;89.10;100427.73;1742394;81;20988;-44
2021/11/22 07:34:28;;;;;;;16.97;12.58;;;;;;;5.31;88.93;100432.04;1770434;80;20999;-44
2021/11/22 07:36:55;;;;;;;31.55;14.15;;;;;;;5.34;88.76;100433.74;1742455;81;21088;-44
2021/11/22 07:39:22;;;;;;;25.57;13.62;;;;;;;5.36;88.54;100426.90;1770761;81;20908;-44
2021/11/22 07:41:51;;;;;;;21.33;13.55;;;;;;;5.41;88.68;100432.89;1770561;81;21811;-44
2021/11/22 07:44:18;;;;;;;19.57;13.83;;;;;;;5.45;88.30;100428.23;1770570;81;20972;-44
2021/11/22 07:46:45;;;;;;;19.98;12.65;;;;;;;5.51;88.29;100431.66;1765148;81;20933;-44
2021/11/22 07:49:12;;;;;;;25.12;13.48;;;;;;;5.58;88.24;100434.66;1764991;81;20933;-44
2021/11/22 07:51:40;;;;;;;22.73;14.03;;;;;;;5.65;88.17;100435.53;1765047;80;21511;-44
2021/11/22 07:54:08;;;;;;;27.52;13.98;;;;;;;5.71;88.20;100436.81;1765090;81;21103;-44
2021/11/22 07:56:34;;;;;;;21.17;12.47;;;;;;;5.72;87.89;100439.81;1745403;81;21008;-44
2021/11/22 07:59:01;;;;;;;16.70;12.45;;;;;;;5.73;87.60;100441.11;1765051;80;20940;-44
2021/11/22 08:01:29;;;;;;;18.37;12.73;;;;;;;5.75;87.55;100441.97;1764918;81;20937;-44
2021/11/22 08:03:55;;;;;;;20.50;12.00;;;;;;;5.84;87.46;100436.40;1765202;81;21019;-44
2021/11/22 08:06:24;;;;;;;20.82;13.60;;;;;;;5.92;87.34;100438.53;1765125;81;21797;-44
2021/11/22 08:08:52;;;;;;;20.90;14.30;;;;;;;5.99;87.31;100430.00;1764981;81;21451;-44
2021/11/22 08:13:52;;;;;;;20.52;13.70;;;;;;;6.18;86.94;100436.42;1764950;81;20929;-45
2021/11/22 08:16:20;;;;;;;21.55;12.47;;;;;;;6.28;86.89;100437.28;1764866;81;21360;-44
2021/11/22 08:18:47;;;;;;;28.00;14.45;;;;;;;6.36;86.65;100438.15;1745804;81;21190;-44
2021/11/22 08:21:15;;;;;;;23.15;13.70;;;;;;;6.43;86.35;100437.27;1764862;81;20969;-44
2021/11/22 08:23:42;;;;;;;23.12;13.70;;;;;;;6.54;86.11;100437.25;1765088;80;21533;-44
2021/11/22 08:26:09;;;;;;;23.18;12.47;;;;;;;6.60;85.69;100437.23;1764968;81;20865;-44
2021/11/22 08:28:36;;;;;;;19.67;13.22;;;;;;;6.67;84.62;100437.20;1765053;81;21557;-44
2021/11/22 08:31:04;;;;;;;21.97;12.93;;;;;;;6.69;83.59;100435.48;1765021;81;21459;-44
2021/11/22 08:33:32;;;;;;;27.67;14.90;;;;;;;6.74;83.50;100443.63;1764846;81;20937;-44
2021/11/22 08:35:59;;;;;;;29.07;13.55;;;;;;;6.82;83.52;100442.33;1764980;81;20984;-44
2021/11/22 08:38:28;;;;;;;51.60;14.68;;;;;;;6.89;82.93;100442.72;1745648;81;20913;-44
2021/11/22 08:40:55;;;;;;;36.25;13.72;;;;;;;6.97;82.86;100438.00;1765013;80;20945;-44
2021/11/22 08:43:21;;;;;;;28.02;14.53;;;;;;;7.06;82.06;100439.23;1746049;81;21758;-44
2021/11/22 08:45:48;;;;;;;23.38;13.62;;;;;;;7.12;81.82;100443.06;1764832;80;20972;-44
2021/11/22 08:48:16;;;;;;;27.35;13.35;;;;;;;7.14;80.14;100436.19;1764950;81;20914;-45
2021/11/22 08:50:43;;;;;;;24.92;13.85;;;;;;;7.22;80.34;100450.77;1764978;80;20909;-45
2021/11/22 08:53:10;;;;;;;98.67;18.10;;;;;;;7.26;80.10;100445.58;1764900;81;20981;-45
2021/11/22 08:55:37;;;;;;;29.32;14.13;;;;;;;7.29;79.45;100450.70;1765038;81;21125;-45
2021/11/22 08:58:04;;;;;;;36.17;14.45;;;;;;;7.31;79.17;100448.14;1765060;81;20941;-45
2021/11/22 09:00:33;;;;;;;27.17;14.30;;;;;;;7.34;79.25;100449.41;1764975;81;20932;-45
2021/11/22 09:03:01;;;;;;;47.00;15.20;;;;;;;7.36;79.07;100448.97;1765125;81;21023;-45
2021/11/22 09:05:28;;;;;;;57.83;15.10;;;;;;;7.39;78.80;100446.37;1745246;81;20941;-43
2021/11/22 09:07:57;;;;;;;39.65;14.63;;;;;;;7.40;78.36;100445.50;1765263;81;21107;-44
2021/11/22 09:10:24;;;;;;;35.80;15.80;;;;;;;7.44;78.82;100447.64;1764903;81;20976;-44
2021/11/22 09:12:52;;;;;;;18.85;14.25;;;;;;;7.47;78.75;100455.34;1764950;81;21071;-43
2021/11/22 09:15:20;;;;;;;32.93;14.23;;;;;;;7.52;78.26;100454.05;1765045;81;21016;-43
2021/11/22 09:17:47;;;;;;;22.05;15.08;;;;;;;7.54;78.15;100454.44;1765298;81;20890;-43
2021/11/22 09:20:14;;;;;;;31.23;14.95;;;;;;;7.54;78.08;100448.00;1764977;81;21136;-43
2021/11/22 09:22:41;;;;;;;49.38;17.27;;;;;;;7.56;78.11;100447.55;1765194;81;20901;-43
2021/11/22 09:25:08;;;;;;;27.90;15.60;;;;;;;7.58;77.65;100450.13;1764930;81;20898;-43
2021/11/22 09:27:36;;;;;;;28.20;14.83;;;;;;;7.61;77.58;100456.55;1764963;81;20877;-43
2021/11/22 09:30:05;;;;;;;44.10;17.12;;;;;;;7.61;77.71;100454.84;1764962;81;20993;-43
2021/11/22 09:32:32;;;;;;;29.55;16.85;;;;;;;7.61;77.47;100450.98;1745404;81;21080;-43
2021/11/22 09:34:59;;;;;;;25.15;16.10;;;;;;;7.62;77.65;100460.42;1745132;81;20972;-43
2021/11/22 09:37:25;;;;;;;35.52;15.60;;;;;;;7.63;77.80;100463.84;1765169;81;20944;-43
2021/11/22 09:39:52;;;;;;;33.02;16.27;;;;;;;7.66;77.89;100468.13;1764987;81;20933;-43
2021/11/22 09:42:19;;;;;;;29.48;14.47;;;;;;;7.68;77.91;100468.52;1745334;81;20827;-44
2021/11/22 09:44:47;;;;;;;25.02;15.43;;;;;;;7.68;77.67;100469.81;1765023;81;21067;-44
2021/11/22 09:47:14;;;;;;;29.95;15.53;;;;;;;7.71;77.97;100471.52;1742776;81;21625;-43
2021/11/22 09:49:41;;;;;;;26.82;16.35;;;;;;;7.71;77.73;100468.53;1770388;80;20905;-43
2021/11/22 09:52:08;;;;;;;27.45;16.37;;;;;;;7.75;77.48;100470.63;1770382;80;20941;-43
2021/11/22 09:54:35;;;;;;;32.33;16.35;;;;;;;7.76;77.14;100468.48;1742865;81;20968;-44
2021/11/22 09:57:02;;;;;;;24.87;14.95;;;;;;;7.76;76.96;100471.06;1770392;80;21089;-44
2021/11/22 09:59:29;;;;;;;20.75;14.45;;;;;;;7.76;77.23;100464.61;1742488;81;20893;-44
2021/11/22 10:01:56;;;;;;;23.30;16.17;;;;;;;7.75;77.38;100470.63;1770383;81;21057;-44
2021/11/22 10:04:29;;;;;;;25.95;15.78;;;;;;;7.76;77.59;100467.19;1770524;81;20949;-45
2021/11/22 10:07:03;;;;;;;25.95;16.97;;;;;;;7.81;77.12;100471.88;1742292;81;21067;-45
2021/11/22 10:09:40;;;;;;;24.20;16.45;;;;;;;7.85;77.04;100466.28;1770589;81;21091;-44
2021/11/22 10:12:21;;;;;;;26.48;18.57;;;;;;;7.86;76.87;100470.56;1770317;80;20885;-44
2021/11/22 10:14:57;;;;;;;28.77;18.95;;;;;;;7.89;76.44;100468.84;1770518;80;21459;-45
2021/11/22 10:17:30;;;;;;;21.30;15.45;;;;;;;7.92;76.26;100476.96;1770392;81;20976;-45
2021/11/22 10:20:10;;;;;;;21.73;14.80;;;;;;;7.89;76.15;100473.12;1770137;81;20932;-45
2021/11/22 10:23:04;;;;;;;21.80;15.48;;;;;;;7.85;76.06;100479.16;1769381;81;21869;-44
2021/11/22 10:25:39;;;;;;;21.82;15.40;;;;;;;7.76;76.63;100468.48;1769428;81;20940;-44
2021/11/22 10:28:13;;;;;;;21.85;15.28;;;;;;;7.74;76.91;100477.94;1742171;81;20869;-44
2021/11/22 10:30:45;;;;;;;20.65;14.15;;;;;;;7.75;76.70;100475.38;1742866;81;20890;-44
2021/11/22 10:33:14;;;;;;;23.22;14.90;;;;;;;7.75;76.73;100474.50;1770359;81;21601;-44
2021/11/22 10:35:41;;;;;;;19.92;14.87;;;;;;;7.75;76.85;100476.66;1770728;81;21122;-44
2021/11/22 10:38:18;;;;;;;21.62;14.65;;;;;;;7.76;77.05;100477.08;1770372;81;21380;-44
2021/11/22 10:40:50;;;;;;;22.82;14.50;;;;;;;7.82;77.21;100477.91;1770529;80;20913;-44
2021/11/22 10:43:17;;;;;;;20.85;14.83;;;;;;;7.84;76.87;100477.45;1770464;80;21037;-44
2021/11/22 10:45:50;;;;;;;23.42;15.53;;;;;;;7.78;76.75;100478.80;1769787;80;20957;-45
2021/11/22 10:48:29;;;;;;;18.85;14.45;;;;;;;7.70;77.13;100477.09;1740044;81;21765;-44
2021/11/22 10:51:13;;;;;;;22.62;15.45;;;;;;;7.66;77.54;100479.72;1767144;80;20877;-45
2021/11/22 10:53:48;;;;;;;26.23;14.65;;;;;;;7.59;77.67;100480.19;1768103;81;20929;-44
2021/11/22 10:56:21;;;;;;;24.45;15.35;;;;;;;7.56;77.91;100482.33;1768345;81;20933;-45
2021/11/22 10:59:06;;;;;;;23.32;15.13;;;;;;;7.51;78.22;100479.38;1739847;81;20953;-44
2021/11/22 11:01:44;;;;;;;27.93;15.58;;;;;;;7.47;78.45;100481.97;1768420;81;21852;-44
2021/11/22 11:04:21;;;;;;;23.62;14.53;;;;;;;7.43;78.55;100483.28;1768081;81;21068;-43
2021/11/22 11:06:55;;;;;;;21.05;14.38;;;;;;;7.41;78.80;100479.86;1768170;80;21348;-44
2021/11/22 11:09:41;;;;;;;22.22;14.68;;;;;;;7.41;79.00;100482.43;1768062;81;21510;-44
2021/11/22 11:12:19;;;;;;;92.33;19.85;;;;;;;7.35;79.25;100485.88;1768269;80;21392;-45
2021/11/22 11:14:52;;;;;;;52.93;17.10;;;;;;;7.32;79.51;100483.33;1768020;80;20929;-45
2021/11/22 11:17:26;;;;;;;38.05;17.15;;;;;;;7.29;79.73;100481.61;1739560;81;21514;-45
2021/11/22 11:19:56;;;;;;;57.20;18.45;;;;;;;7.24;79.70;100476.91;1768036;80;20885;-45
2021/11/22 11:22:24;;;;;;;46.37;20.70;;;;;;;7.17;79.92;100478.66;1740299;81;20968;-45